createdAt,value
2018-05-31T00:00:09.119Z,20.64
2018-05-31T00:01:09.056Z,20.57
2018-05-31T00:02:08.983Z,20.52
2018-05-31T00:03:08.908Z,20.54
2018-05-31T00:04:29.824Z,20.50
2018-05-31T00:05:08.778Z,20.54
2018-05-31T00:06:08.708Z,20.54
2018-05-31T00:07:08.647Z,20.50
2018-05-31T00:08:08.566Z,20.50
2018-05-31T00:09:08.498Z,20.57
2018-05-31T00:10:29.413Z,20.54
2018-05-31T00:11:08.360Z,20.55
2018-05-31T00:12:08.291Z,20.52
2018-05-31T00:13:08.233Z,20.54
2018-05-31T00:14:08.160Z,20.47
2018-05-31T00:15:08.089Z,20.39
2018-05-31T00:16:29.003Z,20.51
2018-05-31T00:17:07.959Z,20.50
2018-05-31T00:18:07.888Z,20.51
2018-05-31T00:19:07.811Z,20.36
2018-05-31T00:20:07.753Z,20.39
2018-05-31T00:21:07.708Z,20.51
2018-05-31T00:22:28.593Z,20.51
2018-05-31T00:23:07.540Z,20.52
2018-05-31T00:24:07.480Z,20.51
2018-05-31T00:25:07.440Z,20.50
2018-05-31T00:26:07.331Z,20.42
2018-05-31T00:27:07.268Z,20.50
2018-05-31T00:28:28.192Z,20.48
2018-05-31T00:29:07.128Z,20.43
2018-05-31T00:30:07.059Z,20.39
2018-05-31T00:31:06.993Z,20.39
2018-05-31T00:32:06.919Z,20.29
2018-05-31T00:33:06.852Z,20.21
2018-05-31T00:34:27.778Z,20.28
2018-05-31T00:35:06.722Z,20.31
2018-05-31T00:36:06.647Z,20.38
2018-05-31T00:37:06.580Z,20.39
2018-05-31T00:38:06.507Z,20.42
2018-05-31T00:39:06.439Z,20.43
2018-05-31T00:40:27.371Z,20.38
2018-05-31T00:41:06.307Z,20.29
2018-05-31T00:42:06.231Z,20.32
2018-05-31T00:43:06.165Z,20.26
2018-05-31T00:44:06.107Z,20.26
2018-05-31T00:45:06.039Z,20.26
2018-05-31T00:46:26.950Z,20.24
2018-05-31T00:47:05.896Z,20.24
2018-05-31T00:48:05.822Z,20.33
2018-05-31T00:49:05.746Z,20.32
2018-05-31T00:50:05.707Z,20.26
2018-05-31T00:51:05.620Z,20.13
2018-05-31T00:52:26.533Z,20.17
2018-05-31T00:53:05.488Z,20.14
2018-05-31T00:54:05.417Z,20.21
2018-05-31T00:55:05.360Z,20.16
2018-05-31T00:56:05.275Z,20.20
2018-05-31T00:57:05.210Z,20.13
2018-05-31T00:58:26.122Z,20.17
2018-05-31T00:59:05.083Z,20.16
2018-05-31T01:00:04.995Z,20.24
2018-05-31T01:01:04.928Z,20.28
2018-05-31T01:02:04.858Z,20.17
2018-05-31T01:03:04.790Z,20.13
2018-05-31T01:04:25.717Z,20.18
2018-05-31T01:05:04.653Z,20.02
2018-05-31T01:06:04.583Z,20.01
2018-05-31T01:07:04.536Z,20.05
2018-05-31T01:08:04.442Z,20.03
2018-05-31T01:09:04.382Z,20.03
2018-05-31T01:10:25.303Z,20.05
2018-05-31T01:11:04.236Z,20.08
2018-05-31T01:12:04.175Z,20.05
2018-05-31T01:13:04.113Z,20.06
2018-05-31T01:14:04.027Z,19.99
2018-05-31T01:15:03.968Z,20.10
2018-05-31T01:16:24.871Z,20.11
2018-05-31T01:17:03.826Z,20.14
2018-05-31T01:18:03.750Z,20.06
2018-05-31T01:19:03.712Z,20.16
2018-05-31T01:20:03.621Z,20.16
2018-05-31T01:21:03.553Z,20.10
2018-05-31T01:22:24.466Z,20.11
2018-05-31T01:23:03.407Z,20.06
2018-05-31T01:24:03.343Z,20.02
2018-05-31T01:25:03.270Z,20.05
2018-05-31T01:26:03.199Z,19.99
2018-05-31T01:27:03.134Z,20.03
2018-05-31T01:28:24.051Z,20.02
2018-05-31T01:29:02.997Z,19.99
2018-05-31T01:30:02.925Z,20.02
2018-05-31T01:31:02.861Z,20.01
2018-05-31T01:32:02.845Z,20.03
2018-05-31T01:33:02.774Z,20.16
2018-05-31T01:34:23.636Z,20.13
2018-05-31T01:35:02.579Z,19.86
2018-05-31T01:36:02.514Z,19.86
2018-05-31T01:37:02.447Z,19.69
2018-05-31T01:38:02.385Z,19.74
2018-05-31T01:39:02.304Z,19.69
2018-05-31T01:40:23.227Z,19.61
2018-05-31T01:41:02.177Z,19.63
2018-05-31T01:42:02.100Z,19.63
2018-05-31T01:43:02.034Z,19.68
2018-05-31T01:44:01.969Z,19.71
2018-05-31T01:45:01.891Z,19.69
2018-05-31T01:46:22.811Z,19.65
2018-05-31T01:47:01.766Z,19.76
2018-05-31T01:48:01.702Z,19.76
2018-05-31T01:49:01.622Z,19.77
2018-05-31T01:50:01.550Z,19.78
2018-05-31T01:51:01.498Z,19.78
2018-05-31T01:52:22.461Z,19.77
2018-05-31T01:53:01.353Z,19.76
2018-05-31T01:54:01.275Z,19.68
2018-05-31T01:55:01.207Z,19.73
2018-05-31T01:56:01.139Z,19.74
2018-05-31T01:57:01.077Z,19.62
2018-05-31T01:58:21.975Z,19.74
2018-05-31T01:59:00.945Z,19.77
2018-05-31T02:00:00.869Z,19.69
2018-05-31T02:01:00.797Z,19.76
2018-05-31T02:02:00.733Z,19.74
2018-05-31T02:03:00.653Z,19.76
2018-05-31T02:04:21.598Z,19.73
2018-05-31T02:05:00.512Z,19.77
2018-05-31T02:06:00.438Z,19.80
2018-05-31T02:07:00.387Z,19.76
2018-05-31T02:08:00.305Z,19.78
2018-05-31T02:09:00.264Z,19.77
2018-05-31T02:10:21.146Z,19.74
2018-05-31T02:11:00.146Z,19.81
2018-05-31T02:12:00.037Z,19.87
2018-05-31T02:12:59.962Z,19.87
2018-05-31T02:13:59.891Z,19.86
2018-05-31T02:14:59.829Z,19.99
2018-05-31T02:16:20.759Z,20.03
2018-05-31T02:16:59.680Z,20.02
2018-05-31T02:17:59.611Z,20.01
2018-05-31T02:18:59.563Z,20.03
2018-05-31T02:19:59.481Z,20.01
2018-05-31T02:20:59.405Z,19.98
2018-05-31T02:22:20.330Z,19.99
2018-05-31T02:22:59.271Z,20.03
2018-05-31T02:23:59.201Z,20.08
2018-05-31T02:24:59.136Z,20.13
2018-05-31T02:25:59.079Z,20.16
2018-05-31T02:26:59.006Z,20.16
2018-05-31T02:28:19.915Z,20.18
2018-05-31T02:28:58.856Z,20.13
2018-05-31T02:29:58.792Z,20.14
2018-05-31T02:30:58.736Z,20.16
2018-05-31T02:31:58.647Z,20.08
2018-05-31T02:32:58.576Z,20.01
2018-05-31T02:34:19.518Z,20.13
2018-05-31T02:34:58.449Z,20.11
2018-05-31T02:35:58.377Z,20.01
2018-05-31T02:36:58.303Z,20.01
2018-05-31T02:37:58.237Z,20.11
2018-05-31T02:38:58.170Z,19.96
2018-05-31T02:40:19.113Z,19.95
2018-05-31T02:40:58.031Z,19.98
2018-05-31T02:41:57.963Z,19.99
2018-05-31T02:42:57.907Z,19.95
2018-05-31T02:43:57.822Z,20.06
2018-05-31T02:44:57.748Z,20.03
2018-05-31T02:46:18.695Z,20.01
2018-05-31T02:46:57.630Z,19.96
2018-05-31T02:47:57.545Z,19.99
2018-05-31T02:48:57.476Z,20.01
2018-05-31T02:49:57.405Z,20.02
2018-05-31T02:50:57.336Z,19.98
2018-05-31T02:52:18.272Z,20.02
2018-05-31T02:52:57.209Z,20.02
2018-05-31T02:53:57.141Z,19.99
2018-05-31T02:54:57.065Z,20.01
2018-05-31T02:55:56.998Z,20.01
2018-05-31T02:56:56.927Z,20.01
2018-05-31T02:58:17.847Z,19.96
2018-05-31T02:58:56.789Z,19.99
2018-05-31T02:59:56.720Z,19.99
2018-05-31T03:00:56.657Z,20.10
2018-05-31T03:01:56.587Z,20.14
2018-05-31T03:02:56.513Z,20.11
2018-05-31T03:04:17.424Z,20.03
2018-05-31T03:04:56.378Z,20.01
2018-05-31T03:05:56.299Z,19.94
2018-05-31T03:06:56.243Z,19.98
2018-05-31T03:07:56.163Z,20.02
2018-05-31T03:08:56.095Z,20.01
2018-05-31T03:10:17.012Z,19.95
2018-05-31T03:10:55.964Z,20.03
2018-05-31T03:11:55.890Z,20.05
2018-05-31T03:12:55.817Z,19.98
2018-05-31T03:13:55.750Z,19.98
2018-05-31T03:14:55.693Z,19.98
2018-05-31T03:16:16.597Z,19.94
2018-05-31T03:16:55.547Z,20.03
2018-05-31T03:17:55.481Z,19.99
2018-05-31T03:18:55.406Z,20.01
2018-05-31T03:19:55.337Z,19.88
2018-05-31T03:20:55.278Z,19.98
2018-05-31T03:22:16.187Z,19.99
2018-05-31T03:22:55.129Z,19.95
2018-05-31T03:23:55.065Z,20.05
2018-05-31T03:24:54.994Z,19.98
2018-05-31T03:25:54.915Z,20.02
2018-05-31T03:26:54.856Z,20.01
2018-05-31T03:28:15.768Z,19.98
2018-05-31T03:28:54.709Z,19.92
2018-05-31T03:29:54.650Z,19.98
2018-05-31T03:30:54.611Z,19.92
2018-05-31T03:31:54.503Z,19.87
2018-05-31T03:32:54.441Z,19.86
2018-05-31T03:34:15.353Z,19.95
2018-05-31T03:34:54.294Z,19.88
2018-05-31T03:35:54.235Z,19.92
2018-05-31T03:36:54.173Z,19.87
2018-05-31T03:37:54.092Z,19.81
2018-05-31T03:38:54.025Z,19.78
2018-05-31T03:40:14.947Z,19.74
2018-05-31T03:40:53.887Z,19.74
2018-05-31T03:41:53.817Z,19.66
2018-05-31T03:42:53.750Z,19.66
2018-05-31T03:43:53.677Z,19.73
2018-05-31T03:44:53.612Z,19.68
2018-05-31T03:46:14.524Z,19.71
2018-05-31T03:46:53.481Z,19.71
2018-05-31T03:47:53.418Z,19.71
2018-05-31T03:48:53.334Z,19.73
2018-05-31T03:49:53.263Z,19.65
2018-05-31T03:50:53.190Z,19.59
2018-05-31T03:52:14.108Z,19.66
2018-05-31T03:52:53.054Z,19.65
2018-05-31T03:53:53.000Z,19.56
2018-05-31T03:54:52.912Z,19.58
2018-05-31T03:55:52.851Z,19.62
2018-05-31T03:56:52.778Z,19.54
2018-05-31T03:58:13.695Z,19.59
2018-05-31T03:58:52.642Z,19.54
2018-05-31T03:59:52.567Z,19.51
2018-05-31T04:00:52.528Z,19.55
2018-05-31T04:01:52.436Z,19.54
2018-05-31T04:02:52.399Z,19.51
2018-05-31T04:04:13.286Z,19.51
2018-05-31T04:04:52.236Z,19.48
2018-05-31T04:05:52.154Z,19.46
2018-05-31T04:06:52.087Z,19.61
2018-05-31T04:07:52.028Z,19.50
2018-05-31T04:08:51.946Z,19.58
2018-05-31T04:10:12.883Z,19.54
2018-05-31T04:10:51.804Z,19.47
2018-05-31T04:11:51.743Z,19.44
2018-05-31T04:12:51.674Z,19.50
2018-05-31T04:13:51.605Z,19.33
2018-05-31T04:14:51.538Z,19.37
2018-05-31T04:16:12.454Z,19.46
2018-05-31T04:16:51.405Z,19.48
2018-05-31T04:17:51.330Z,19.50
2018-05-31T04:18:51.253Z,19.54
2018-05-31T04:19:51.221Z,19.46
2018-05-31T04:20:51.122Z,19.56
2018-05-31T04:22:12.040Z,19.47
2018-05-31T04:22:50.973Z,19.47
2018-05-31T04:23:50.918Z,19.48
2018-05-31T04:24:50.846Z,19.48
2018-05-31T04:25:50.773Z,19.46
2018-05-31T04:26:50.699Z,19.51
2018-05-31T04:28:11.621Z,19.41
2018-05-31T04:28:50.579Z,19.44
2018-05-31T04:29:50.519Z,19.50
2018-05-31T04:30:50.426Z,19.54
2018-05-31T04:31:50.365Z,19.61
2018-05-31T04:32:50.295Z,19.58
2018-05-31T04:34:11.200Z,19.61
2018-05-31T04:34:50.147Z,19.62
2018-05-31T04:35:50.091Z,19.66
2018-05-31T04:36:50.036Z,19.68
2018-05-31T04:37:49.944Z,19.63
2018-05-31T04:38:49.867Z,19.65
2018-05-31T04:40:10.792Z,19.69
2018-05-31T04:40:49.733Z,19.65
2018-05-31T04:41:49.664Z,19.71
2018-05-31T04:42:49.631Z,19.74
2018-05-31T04:43:49.554Z,19.81
2018-05-31T04:44:49.459Z,19.76
2018-05-31T04:46:10.381Z,19.77
2018-05-31T04:46:49.313Z,19.74
2018-05-31T04:47:49.258Z,19.76
2018-05-31T04:48:49.198Z,19.78
2018-05-31T04:49:49.105Z,19.86
2018-05-31T04:50:49.035Z,19.86
2018-05-31T04:52:09.961Z,20.03
2018-05-31T04:52:48.953Z,20.02
2018-05-31T04:53:48.828Z,20.13
2018-05-31T04:54:48.768Z,20.20
2018-05-31T04:55:48.702Z,20.20
2018-05-31T04:56:48.688Z,20.20
2018-05-31T04:58:09.538Z,20.23
2018-05-31T04:58:48.493Z,20.32
2018-05-31T04:59:48.443Z,20.39
2018-05-31T05:00:48.355Z,20.39
2018-05-31T05:01:48.278Z,20.41
2018-05-31T05:02:48.227Z,20.51
2018-05-31T05:04:09.143Z,20.51
2018-05-31T05:04:48.086Z,20.52
2018-05-31T05:05:48.005Z,20.55
2018-05-31T05:06:47.941Z,20.62
2018-05-31T05:07:47.873Z,20.62
2018-05-31T05:08:47.797Z,20.70
2018-05-31T05:10:08.714Z,20.70
2018-05-31T05:10:47.671Z,20.70
2018-05-31T05:11:47.595Z,20.70
2018-05-31T05:12:47.521Z,20.72
2018-05-31T05:13:47.450Z,20.70
2018-05-31T05:14:47.396Z,20.70
2018-05-31T05:16:08.308Z,20.70
2018-05-31T05:16:47.251Z,20.70
2018-05-31T05:17:47.185Z,20.62
2018-05-31T05:18:47.114Z,20.76
2018-05-31T05:19:47.042Z,20.73
2018-05-31T05:20:46.975Z,20.82
2018-05-31T05:22:07.927Z,20.79
2018-05-31T05:22:46.850Z,20.97
2018-05-31T05:23:46.770Z,20.99
2018-05-31T05:24:46.698Z,21.04
2018-05-31T05:25:46.631Z,21.04
2018-05-31T05:26:46.588Z,20.99
2018-05-31T05:28:07.486Z,21.14
2018-05-31T05:28:46.432Z,21.10
2018-05-31T05:29:46.362Z,21.24
2018-05-31T05:30:46.307Z,21.22
2018-05-31T05:31:46.258Z,21.24
2018-05-31T05:32:46.155Z,21.28
2018-05-31T05:34:07.079Z,21.19
2018-05-31T05:34:46.021Z,21.27
2018-05-31T05:35:45.951Z,21.27
2018-05-31T05:36:45.891Z,21.19
2018-05-31T05:37:45.814Z,21.22
2018-05-31T05:38:45.758Z,21.27
2018-05-31T05:40:06.669Z,21.25
2018-05-31T05:40:45.623Z,21.24
2018-05-31T05:41:45.539Z,21.32
2018-05-31T05:42:45.479Z,21.29
2018-05-31T05:43:45.419Z,21.24
2018-05-31T05:44:45.333Z,21.25
2018-05-31T05:46:06.268Z,21.31
2018-05-31T05:46:45.198Z,21.24
2018-05-31T05:47:45.140Z,21.40
2018-05-31T05:48:45.073Z,21.43
2018-05-31T05:49:44.999Z,21.54
2018-05-31T05:50:44.939Z,21.54
2018-05-31T05:52:05.851Z,21.56
2018-05-31T05:52:44.793Z,21.56
2018-05-31T05:53:44.744Z,21.47
2018-05-31T05:54:44.667Z,21.42
2018-05-31T05:55:44.590Z,21.43
2018-05-31T05:56:44.521Z,21.43
2018-05-31T05:58:05.449Z,21.43
2018-05-31T05:58:44.385Z,21.43
2018-05-31T05:59:44.328Z,21.40
2018-05-31T06:00:44.261Z,21.43
2018-05-31T06:01:44.180Z,21.50
2018-05-31T06:02:44.117Z,21.54
2018-05-31T06:04:05.050Z,21.50
2018-05-31T06:04:43.976Z,21.52
2018-05-31T06:05:43.917Z,21.53
2018-05-31T06:06:43.846Z,21.50
2018-05-31T06:07:43.782Z,21.46
2018-05-31T06:08:43.709Z,21.53
2018-05-31T06:10:04.660Z,21.56
2018-05-31T06:10:43.570Z,21.52
2018-05-31T06:11:43.503Z,21.53
2018-05-31T06:12:43.443Z,21.54
2018-05-31T06:13:43.374Z,21.56
2018-05-31T06:14:43.371Z,21.59
2018-05-31T06:16:04.227Z,21.74
2018-05-31T06:16:43.169Z,21.75
2018-05-31T06:17:43.105Z,21.69
2018-05-31T06:18:43.029Z,21.83
2018-05-31T06:19:43.000Z,21.80
2018-05-31T06:20:42.893Z,21.82
2018-05-31T06:22:03.857Z,21.96
2018-05-31T06:22:42.760Z,22.00
2018-05-31T06:23:42.695Z,22.03
2018-05-31T06:24:42.621Z,22.09
2018-05-31T06:25:42.569Z,22.20
2018-05-31T06:26:42.484Z,22.14
2018-05-31T06:28:03.414Z,22.21
2018-05-31T06:28:42.352Z,22.28
2018-05-31T06:29:42.282Z,22.28
2018-05-31T06:30:42.222Z,22.28
2018-05-31T06:31:42.163Z,22.28
2018-05-31T06:32:42.082Z,22.35
2018-05-31T06:34:03.008Z,22.43
2018-05-31T06:34:41.948Z,22.43
2018-05-31T06:35:41.882Z,22.58
2018-05-31T06:36:41.829Z,22.62
2018-05-31T06:37:41.754Z,22.76
2018-05-31T06:38:41.682Z,22.86
2018-05-31T06:40:02.600Z,22.92
2018-05-31T06:40:41.550Z,23.10
2018-05-31T06:41:41.481Z,23.02
2018-05-31T06:42:41.415Z,23.22
2018-05-31T06:43:41.349Z,23.20
2018-05-31T06:44:41.280Z,23.31
2018-05-31T06:46:02.213Z,23.35
2018-05-31T06:46:41.144Z,23.39
2018-05-31T06:47:41.081Z,23.31
2018-05-31T06:48:41.015Z,23.36
2018-05-31T06:49:40.943Z,23.46
2018-05-31T06:50:40.879Z,23.42
2018-05-31T06:52:01.799Z,23.31
2018-05-31T06:52:40.752Z,23.28
2018-05-31T06:53:40.682Z,23.23
2018-05-31T06:54:40.675Z,23.33
2018-05-31T06:55:40.541Z,23.46
2018-05-31T06:56:40.491Z,23.57
2018-05-31T06:58:01.396Z,23.66
2018-05-31T06:58:40.344Z,23.83
2018-05-31T06:59:40.283Z,23.91
2018-05-31T07:00:40.235Z,23.79
2018-05-31T07:01:40.143Z,23.61
2018-05-31T07:02:40.084Z,23.35
2018-05-31T07:04:01.037Z,23.33
2018-05-31T07:04:39.940Z,23.36
2018-05-31T07:05:39.875Z,23.40
2018-05-31T07:06:39.814Z,23.38
2018-05-31T07:07:39.747Z,23.25
2018-05-31T07:08:39.674Z,23.47
2018-05-31T07:10:00.596Z,23.53
2018-05-31T07:10:39.547Z,23.70
2018-05-31T07:11:39.482Z,23.61
2018-05-31T07:12:39.417Z,23.53
2018-05-31T07:13:39.367Z,23.50
2018-05-31T07:14:39.281Z,23.54
2018-05-31T07:16:00.226Z,23.63
2018-05-31T07:16:39.147Z,23.58
2018-05-31T07:17:39.085Z,23.65
2018-05-31T07:18:39.013Z,23.69
2018-05-31T07:19:38.956Z,23.70
2018-05-31T07:20:38.897Z,23.75
2018-05-31T07:22:00.406Z,23.75
2018-05-31T07:22:38.750Z,23.57
2018-05-31T07:23:38.726Z,23.61
2018-05-31T07:24:38.619Z,23.68
2018-05-31T07:25:38.566Z,23.75
2018-05-31T07:26:38.485Z,23.76
2018-05-31T07:27:59.416Z,23.76
2018-05-31T07:28:38.354Z,23.78
2018-05-31T07:29:38.288Z,23.75
2018-05-31T07:30:38.233Z,23.66
2018-05-31T07:31:38.196Z,23.55
2018-05-31T07:32:38.118Z,23.61
2018-05-31T07:33:59.017Z,23.50
2018-05-31T07:34:37.960Z,23.61
2018-05-31T07:35:37.899Z,23.68
2018-05-31T07:36:37.822Z,23.70
2018-05-31T07:37:37.764Z,23.76
2018-05-31T07:38:37.706Z,23.75
2018-05-31T07:39:58.627Z,23.75
2018-05-31T07:40:37.563Z,23.76
2018-05-31T07:41:37.495Z,23.75
2018-05-31T07:42:37.429Z,23.75
2018-05-31T07:43:37.370Z,23.75
2018-05-31T07:44:37.297Z,23.90
2018-05-31T07:45:58.221Z,24.00
2018-05-31T07:46:37.164Z,23.80
2018-05-31T07:47:37.106Z,23.80
2018-05-31T07:48:37.038Z,23.78
2018-05-31T07:49:36.982Z,23.84
2018-05-31T07:50:36.901Z,23.85
2018-05-31T07:51:57.822Z,23.78
2018-05-31T07:52:36.769Z,23.76
2018-05-31T07:53:36.705Z,23.79
2018-05-31T07:54:36.632Z,23.63
2018-05-31T07:55:36.573Z,23.68
2018-05-31T07:56:36.511Z,23.78
2018-05-31T07:57:57.425Z,23.84
2018-05-31T07:58:36.379Z,23.91
2018-05-31T07:59:36.316Z,23.95
2018-05-31T08:00:36.245Z,24.03
2018-05-31T08:01:36.199Z,24.03
2018-05-31T08:02:36.154Z,24.10
2018-05-31T08:03:57.034Z,24.13
2018-05-31T08:04:35.981Z,24.20
2018-05-31T08:05:35.917Z,24.06
2018-05-31T08:06:35.854Z,24.09
2018-05-31T08:07:35.785Z,24.12
2018-05-31T08:08:35.739Z,24.13
2018-05-31T08:09:56.652Z,24.12
2018-05-31T08:10:35.583Z,24.13
2018-05-31T08:11:35.512Z,24.20
2018-05-31T08:12:35.464Z,24.27
2018-05-31T08:13:35.389Z,24.28
2018-05-31T08:14:35.320Z,24.27
2018-05-31T08:15:56.263Z,24.20
2018-05-31T08:16:35.234Z,24.27
2018-05-31T08:17:35.130Z,24.27
2018-05-31T08:18:35.067Z,24.31
2018-05-31T08:19:34.991Z,24.21
2018-05-31T08:20:34.949Z,24.30
2018-05-31T08:21:55.848Z,24.28
2018-05-31T08:22:34.816Z,24.31
2018-05-31T08:23:34.753Z,24.15
2018-05-31T08:24:34.668Z,24.30
2018-05-31T08:25:34.611Z,24.25
2018-05-31T08:26:34.550Z,24.32
2018-05-31T08:27:55.455Z,24.40
2018-05-31T08:28:34.399Z,24.40
2018-05-31T08:29:34.331Z,24.40
2018-05-31T08:30:34.261Z,24.42
2018-05-31T08:31:34.324Z,24.32
2018-05-31T08:32:34.132Z,24.40
2018-05-31T08:33:55.060Z,24.28
2018-05-31T08:34:34.003Z,24.31
2018-05-31T08:35:33.939Z,24.39
2018-05-31T08:36:33.872Z,24.40
2018-05-31T08:37:33.818Z,24.46
2018-05-31T08:38:33.739Z,24.34
2018-05-31T08:39:54.671Z,24.25
2018-05-31T08:40:33.614Z,24.25
2018-05-31T08:41:33.538Z,24.20
2018-05-31T08:42:33.479Z,24.18
2018-05-31T08:43:33.413Z,23.98
2018-05-31T08:44:33.345Z,23.85
2018-05-31T08:45:54.273Z,23.91
2018-05-31T08:46:33.216Z,23.76
2018-05-31T08:47:33.150Z,23.83
2018-05-31T08:48:33.081Z,23.83
2018-05-31T08:49:33.028Z,23.75
2018-05-31T08:50:32.954Z,23.75
2018-05-31T08:51:53.878Z,23.75
2018-05-31T08:52:32.826Z,23.76
2018-05-31T08:53:32.749Z,23.90
2018-05-31T08:54:32.685Z,23.93
2018-05-31T08:55:32.634Z,23.97
2018-05-31T08:56:32.568Z,23.97
2018-05-31T08:57:53.486Z,23.98
2018-05-31T08:58:32.429Z,23.94
2018-05-31T08:59:32.351Z,23.97
2018-05-31T09:00:32.289Z,23.95
2018-05-31T09:01:32.241Z,23.85
2018-05-31T09:02:32.164Z,23.93
2018-05-31T09:03:53.078Z,23.97
2018-05-31T09:04:32.022Z,24.00
2018-05-31T09:05:31.964Z,23.84
2018-05-31T09:06:31.912Z,23.75
2018-05-31T09:07:31.835Z,23.80
2018-05-31T09:08:31.771Z,23.84
2018-05-31T09:09:52.679Z,23.91
2018-05-31T09:10:31.634Z,23.95
2018-05-31T09:11:31.563Z,23.93
2018-05-31T09:12:31.505Z,23.93
2018-05-31T09:13:31.445Z,23.95
2018-05-31T09:14:31.361Z,24.05
2018-05-31T09:15:52.289Z,24.27
2018-05-31T09:16:31.237Z,24.27
2018-05-31T09:17:31.171Z,24.34
2018-05-31T09:18:31.109Z,24.40
2018-05-31T09:19:31.043Z,24.61
2018-05-31T09:20:30.984Z,24.50
2018-05-31T09:21:51.887Z,24.60
2018-05-31T09:22:30.862Z,24.40
2018-05-31T09:23:30.772Z,24.37
2018-05-31T09:24:30.710Z,24.65
2018-05-31T09:25:30.655Z,24.91
2018-05-31T09:26:30.575Z,24.96
2018-05-31T09:27:51.498Z,24.87
2018-05-31T09:28:30.477Z,24.61
2018-05-31T09:29:30.388Z,24.73
2018-05-31T09:30:30.333Z,25.02
2018-05-31T09:31:30.262Z,25.69
2018-05-31T09:32:30.194Z,25.98
2018-05-31T09:33:51.122Z,26.25
2018-05-31T09:34:30.082Z,26.12
2018-05-31T09:35:30.004Z,26.70
2018-05-31T09:36:29.951Z,27.07
2018-05-31T09:37:29.891Z,27.51
2018-05-31T09:38:29.834Z,27.77
2018-05-31T09:39:50.757Z,27.96
2018-05-31T09:40:29.698Z,27.96
2018-05-31T09:41:29.638Z,28.25
2018-05-31T09:42:29.581Z,28.12
2018-05-31T09:43:29.520Z,28.48
2018-05-31T09:44:29.458Z,28.21
2018-05-31T09:45:50.390Z,28.31
2018-05-31T09:46:29.365Z,28.70
2018-05-31T09:47:29.286Z,28.78
2018-05-31T09:48:29.228Z,28.62
2018-05-31T09:49:29.172Z,28.33
2018-05-31T09:50:29.115Z,28.22
2018-05-31T09:51:50.042Z,28.67
2018-05-31T09:52:29.011Z,28.66
2018-05-31T09:53:28.943Z,28.59
2018-05-31T09:54:28.878Z,28.29
2018-05-31T09:55:28.824Z,27.88
2018-05-31T09:56:28.770Z,27.90
2018-05-31T09:57:49.698Z,27.78
2018-05-31T09:58:28.669Z,27.67
2018-05-31T09:59:28.604Z,27.85
2018-05-31T10:00:28.550Z,27.81
2018-05-31T10:01:28.488Z,27.97
2018-05-31T10:02:28.438Z,27.85
2018-05-31T10:03:49.372Z,28.06
2018-05-31T10:04:28.315Z,28.02
2018-05-31T10:05:28.274Z,28.22
2018-05-31T10:06:28.203Z,29.23
2018-05-31T10:07:28.149Z,29.04
2018-05-31T10:08:28.079Z,28.80
2018-05-31T10:09:49.018Z,28.86
2018-05-31T10:10:27.976Z,28.81
2018-05-31T10:11:27.907Z,28.21
2018-05-31T10:12:27.853Z,28.24
2018-05-31T10:13:27.795Z,27.92
2018-05-31T10:14:27.737Z,28.02
2018-05-31T10:15:48.667Z,28.48
2018-05-31T10:16:27.619Z,28.74
2018-05-31T10:17:27.569Z,29.46
2018-05-31T10:18:27.502Z,30.49
2018-05-31T10:19:27.446Z,30.32
2018-05-31T10:20:27.426Z,30.08
2018-05-31T10:21:48.319Z,29.46
2018-05-31T10:22:27.290Z,29.74
2018-05-31T10:23:27.229Z,30.37
2018-05-31T10:24:27.175Z,30.70
2018-05-31T10:25:27.111Z,30.64
2018-05-31T10:26:27.048Z,30.34
2018-05-31T10:27:47.983Z,30.67
2018-05-31T10:28:26.947Z,30.83
2018-05-31T10:29:26.875Z,30.72
2018-05-31T10:30:26.830Z,30.46
2018-05-31T10:31:26.767Z,29.94
2018-05-31T10:32:26.710Z,30.19
2018-05-31T10:33:47.661Z,30.35
2018-05-31T10:34:26.603Z,30.79
2018-05-31T10:35:26.552Z,30.20
2018-05-31T10:36:26.511Z,30.07
2018-05-31T10:37:26.439Z,30.31
2018-05-31T10:38:26.384Z,29.95
2018-05-31T10:39:47.321Z,29.28
2018-05-31T10:40:26.281Z,29.16
2018-05-31T10:41:26.221Z,28.78
2018-05-31T10:42:26.167Z,28.76
2018-05-31T10:43:26.117Z,28.15
2018-05-31T10:44:26.059Z,27.62
2018-05-31T10:45:46.997Z,27.28
2018-05-31T10:46:25.959Z,27.07
2018-05-31T10:47:25.890Z,26.80
2018-05-31T10:48:25.833Z,27.00
2018-05-31T10:49:25.775Z,27.00
2018-05-31T10:50:25.729Z,26.70
2018-05-31T10:51:46.658Z,27.02
2018-05-31T10:52:25.606Z,27.19
2018-05-31T10:53:25.547Z,27.40
2018-05-31T10:54:25.487Z,27.50
2018-05-31T10:55:25.459Z,27.96
2018-05-31T10:56:25.376Z,27.93
2018-05-31T10:57:46.309Z,27.81
2018-05-31T10:58:25.248Z,27.44
2018-05-31T10:59:25.191Z,27.47
2018-05-31T11:00:25.135Z,27.10
2018-05-31T11:01:25.075Z,26.99
2018-05-31T11:02:25.018Z,26.84
2018-05-31T11:03:45.941Z,26.88
2018-05-31T11:04:24.892Z,27.03
2018-05-31T11:05:24.825Z,27.10
2018-05-31T11:06:24.762Z,27.22
2018-05-31T11:07:24.705Z,27.25
2018-05-31T11:08:24.641Z,27.46
2018-05-31T11:09:45.569Z,27.74
2018-05-31T11:10:24.522Z,27.78
2018-05-31T11:11:24.499Z,27.72
2018-05-31T11:12:24.387Z,27.41
2018-05-31T11:13:24.331Z,27.17
2018-05-31T11:14:24.271Z,27.14
2018-05-31T11:15:45.201Z,27.54
2018-05-31T11:16:24.145Z,28.17
2018-05-31T11:17:24.095Z,28.52
2018-05-31T11:18:24.020Z,29.00
2018-05-31T11:19:23.974Z,29.58
2018-05-31T11:20:23.905Z,29.78
2018-05-31T11:21:44.903Z,29.31
2018-05-31T11:22:23.783Z,29.37
2018-05-31T11:23:23.714Z,29.06
2018-05-31T11:24:23.669Z,29.06
2018-05-31T11:25:23.603Z,28.49
2018-05-31T11:26:23.536Z,28.34
2018-05-31T11:27:44.456Z,28.51
2018-05-31T11:28:23.416Z,28.49
2018-05-31T11:29:23.355Z,28.21
2018-05-31T11:30:23.297Z,28.30
2018-05-31T11:31:23.229Z,28.25
2018-05-31T11:32:23.196Z,28.18
2018-05-31T11:33:44.098Z,28.18
2018-05-31T11:34:23.051Z,28.54
2018-05-31T11:35:22.990Z,28.66
2018-05-31T11:36:22.931Z,28.55
2018-05-31T11:37:22.869Z,27.94
2018-05-31T11:38:22.810Z,27.99
2018-05-31T11:39:43.766Z,28.03
2018-05-31T11:40:23.515Z,28.11
2018-05-31T11:41:22.633Z,28.04
2018-05-31T11:42:22.607Z,28.18
2018-05-31T11:43:22.508Z,28.24
2018-05-31T11:44:22.470Z,28.11
2018-05-31T11:45:43.368Z,27.97
2018-05-31T11:46:22.358Z,28.14
2018-05-31T11:47:22.254Z,28.04
2018-05-31T11:48:22.193Z,28.27
2018-05-31T11:49:22.146Z,27.84
2018-05-31T11:50:22.073Z,27.82
2018-05-31T11:51:43.004Z,27.84
2018-05-31T11:52:21.948Z,27.92
2018-05-31T11:53:21.886Z,27.78
2018-05-31T11:54:21.846Z,27.62
2018-05-31T11:55:21.869Z,27.79
2018-05-31T11:56:21.708Z,27.96
2018-05-31T11:57:42.640Z,28.22
2018-05-31T11:58:21.603Z,28.36
2018-05-31T11:59:21.526Z,28.27
2018-05-31T12:00:21.478Z,28.09
2018-05-31T12:01:21.397Z,27.87
2018-05-31T12:02:21.370Z,27.66
2018-05-31T12:03:42.314Z,27.82
2018-05-31T12:04:21.216Z,27.94
2018-05-31T12:05:21.164Z,27.93
2018-05-31T12:06:21.096Z,28.11
2018-05-31T12:07:21.041Z,28.14
2018-05-31T12:08:21.016Z,28.12
2018-05-31T12:09:41.888Z,28.37
2018-05-31T12:10:20.855Z,28.59
2018-05-31T12:11:20.781Z,28.76
2018-05-31T12:12:20.736Z,28.78
2018-05-31T12:13:20.667Z,28.77
2018-05-31T12:14:20.589Z,28.81
2018-05-31T12:15:41.521Z,28.67
2018-05-31T12:16:20.488Z,28.61
2018-05-31T12:17:20.468Z,28.52
2018-05-31T12:18:20.360Z,28.34
2018-05-31T12:19:20.281Z,28.07
2018-05-31T12:20:20.226Z,28.07
2018-05-31T12:21:41.149Z,27.96
2018-05-31T12:22:20.103Z,28.06
2018-05-31T12:23:20.028Z,28.19
2018-05-31T12:24:19.975Z,28.09
2018-05-31T12:25:19.924Z,27.97
2018-05-31T12:26:19.846Z,28.02
2018-05-31T12:27:40.767Z,28.22
2018-05-31T12:28:19.716Z,28.29
2018-05-31T12:29:19.650Z,28.19
2018-05-31T12:30:19.593Z,28.21
2018-05-31T12:31:19.533Z,28.31
2018-05-31T12:32:19.472Z,28.22
2018-05-31T12:33:40.395Z,28.04
2018-05-31T12:34:19.357Z,27.96
2018-05-31T12:35:19.292Z,28.03
2018-05-31T12:36:19.209Z,28.06
2018-05-31T12:37:19.157Z,28.24
2018-05-31T12:38:19.088Z,28.25
2018-05-31T12:39:40.016Z,28.44
2018-05-31T12:40:18.983Z,28.56
2018-05-31T12:41:18.903Z,28.67
2018-05-31T12:42:18.835Z,28.62
2018-05-31T12:43:18.768Z,28.43
2018-05-31T12:44:18.713Z,28.51
2018-05-31T12:45:39.639Z,28.51
2018-05-31T12:46:18.585Z,28.59
2018-05-31T12:47:18.540Z,28.73
2018-05-31T12:48:18.456Z,28.83
2018-05-31T12:49:18.400Z,28.95
2018-05-31T12:50:18.345Z,28.93
2018-05-31T12:51:39.254Z,29.06